Time;durP1;ratioP1;P1;durP2;ratioP2;P2;SDS_P1;SDS_P2;PMS_P1;PMS_P2;Temp;Humidity;BMP_temperature;BMP_pressure;BME280_temperature;BME280_humidity;BME280_pressure;Samples;Min_cycle;Max_cycle;Signal;HPM_P1;HPM_P2
2023/04/01 00:00:33;;;;;;;;;;;15.30;98.30;;;;;;5072800;28;19995;-15
2023/04/01 00:03:07;;;;;;;;;;;15.30;98.30;;;;;;5073988;28;19915;-18
2023/04/01 00:05:42;;;;;;;;;;;15.30;98.30;;;;;;5053090;28;19908;-16
2023/04/01 00:08:08;;;;;;;;;;;15.30;98.30;;;;;;5068925;28;20072;-16
2023/04/01 00:10:33;;;;;;;;;;;15.30;98.30;;;;;;5072688;28;19913;-18
2023/04/01 00:12:59;;;;;;;;;;;15.30;98.30;;;;;;5072639;28;19973;-16
2023/04/01 00:15:24;;;;;;;;;;;15.20;98.30;;;;;;5071975;28;20332;-15
2023/04/01 00:18:02;;;;;;;;;;;15.30;98.30;;;;;;5073468;28;19948;-16
2023/04/01 00:20:31;;;;;;;;;;;15.30;98.30;;;;;;5073526;28;19919;-15
2023/04/01 00:22:59;;;;;;;;;;;15.20;98.30;;;;;;5072282;28;19918;-17
2023/04/01 00:25:25;;;;;;;;;;;15.30;98.30;;;;;;5072170;28;19909;-16
2023/04/01 00:28:22;;;;;;;;;;;15.20;98.30;;;;;;5073253;28;19908;-17
2023/04/01 00:31:10;;;;;;;;;;;15.20;98.30;;;;;;5033586;28;19916;-17
2023/04/01 00:33:39;;;;;;;;;;;15.20;98.30;;;;;;5051287;28;19920;-17
2023/04/01 00:36:23;;;;;;;;;;;15.20;98.30;;;;;;5073094;28;19944;-16
2023/04/01 00:38:51;;;;;;;;;;;15.20;98.30;;;;;;5076901;28;19912;-17
2023/04/01 00:41:21;;;;;;;;;;;15.20;98.30;;;;;;5077044;28;19915;-18
2023/04/01 00:43:50;;;;;;;;;;;15.20;98.30;;;;;;5076197;28;19934;-18
2023/04/01 00:46:22;;;;;;;;;;;15.20;98.30;;;;;;5054040;28;19986;-16
2023/04/01 00:48:51;;;;;;;;;;;15.20;98.30;;;;;;5053499;28;19975;-13
2023/04/01 00:51:40;;;;;;;;;;;15.20;98.30;;;;;;5051975;28;20171;-17
2023/04/01 00:54:09;;;;;;;;;;;15.20;98.30;;;;;;5038446;28;20012;-16
2023/04/01 00:56:40;;;;;;;;;;;15.10;98.30;;;;;;5032767;28;19909;-16
2023/04/01 00:59:32;;;;;;;;;;;15.20;98.30;;;;;;5038911;28;19913;-18
2023/04/01 01:02:16;;;;;;;;;;;15.20;98.30;;;;;;5035066;28;20328;-17
2023/04/01 01:04:53;;;;;;;;;;;15.20;98.30;;;;;;5036324;28;20216;-14
2023/04/01 01:07:40;;;;;;;;;;;15.10;98.30;;;;;;5035115;28;19964;-14
2023/04/01 01:10:27;;;;;;;;;;;15.20;98.30;;;;;;5051456;28;20232;-18
2023/04/01 01:19:34;;;;;;;;;;;15.10;98.30;;;;;;4968687;28;19996;-17
2023/04/01 01:22:18;;;;;;;;;;;15.10;98.30;;;;;;5013919;28;19920;-17
2023/04/01 01:24:50;;;;;;;;;;;15.10;98.30;;;;;;4996888;28;19917;-18
2023/04/01 01:27:23;;;;;;;;;;;15.10;98.30;;;;;;5055290;28;20293;-16
2023/04/01 01:30:09;;;;;;;;;;;15.10;98.30;;;;;;5075865;28;19912;-15
2023/04/01 01:32:56;;;;;;;;;;;15.10;98.30;;;;;;5073967;28;19919;-16
2023/04/01 01:35:50;;;;;;;;;;;15.10;98.60;;;;;;5074498;28;19916;-14
2023/04/01 01:41:50;;;;;;;;;;;15.10;98.30;;;;;;5053418;28;19942;-16
2023/04/01 01:44:30;;;;;;;;;;;15.10;98.30;;;;;;5077615;28;20277;-17
2023/04/01 01:49:57;;;;;;;;;;;15.10;98.30;;;;;;5069108;28;19916;-16
2023/04/01 01:52:32;;;;;;;;;;;15.00;98.30;;;;;;5075974;28;19908;-17
2023/04/01 01:54:58;;;;;;;;;;;15.10;98.30;;;;;;5076346;28;19908;-17
2023/04/01 01:57:37;;;;;;;;;;;15.00;98.30;;;;;;5075717;28;19919;-18
2023/04/01 02:00:21;;;;;;;;;;;15.00;98.30;;;;;;5074934;28;19995;-15
2023/04/01 02:03:08;;;;;;;;;;;15.00;98.30;;;;;;5074781;28;20173;-16
2023/04/01 02:05:48;;;;;;;;;;;15.00;98.30;;;;;;5074485;28;19908;-16
2023/04/01 02:08:23;;;;;;;;;;;15.00;98.30;;;;;;5074327;28;19919;-16
2023/04/01 02:11:06;;;;;;;;;;;15.00;98.30;;;;;;5074485;28;19913;-16
2023/04/01 02:13:43;;;;;;;;;;;15.00;98.30;;;;;;5076579;28;20127;-18
2023/04/01 02:16:32;;;;;;;;;;;15.00;98.30;;;;;;5075981;28;20288;-19
2023/04/01 02:19:22;;;;;;;;;;;15.00;98.30;;;;;;5076034;28;20242;-18
2023/04/01 02:22:15;;;;;;;;;;;15.00;98.30;;;;;;5075328;28;19908;-16
2023/04/01 02:24:46;;;;;;;;;;;15.00;98.30;;;;;;5075384;28;19977;-17
2023/04/01 02:27:14;;;;;;;;;;;15.00;98.30;;;;;;5052462;28;19913;-17
2023/04/01 02:29:46;;;;;;;;;;;15.00;98.30;;;;;;5038323;28;19931;-14
2023/04/01 02:35:03;;;;;;;;;;;15.00;98.30;;;;;;5054566;28;19966;-15
2023/04/01 02:40:50;;;;;;;;;;;15.00;98.30;;;;;;5053866;28;19924;-19
2023/04/01 02:43:19;;;;;;;;;;;14.90;98.30;;;;;;5051486;28;19944;-16
2023/04/01 02:46:06;;;;;;;;;;;14.90;98.30;;;;;;5051693;28;19916;-17
2023/04/01 02:49:08;;;;;;;;;;;15.00;98.30;;;;;;5054192;28;19916;-16
2023/04/01 02:51:37;;;;;;;;;;;14.90;98.30;;;;;;5053560;28;19916;-16
2023/04/01 02:54:18;;;;;;;;;;;14.90;98.30;;;;;;5054875;28;19916;-16
2023/04/01 02:57:11;;;;;;;;;;;14.90;98.30;;;;;;5053812;28;20302;-16
2023/04/01 02:59:36;;;;;;;;;;;14.90;98.30;;;;;;5075325;28;19969;-16
2023/04/01 03:02:44;;;;;;;;;;;14.90;98.30;;;;;;5076579;28;19952;-15
2023/04/01 03:05:08;;;;;;;;;;;14.90;98.30;;;;;;5075128;28;20289;-18
2023/04/01 03:07:43;;;;;;;;;;;14.90;98.30;;;;;;5075866;28;19915;-14
2023/04/01 03:10:17;;;;;;;;;;;14.90;98.40;;;;;;5073522;28;19912;-16
2023/04/01 03:12:46;;;;;;;;;;;14.90;98.40;;;;;;5074918;28;19909;-19
2023/04/01 03:15:18;;;;;;;;;;;14.90;98.40;;;;;;5073927;28;20335;-15
2023/04/01 03:17:58;;;;;;;;;;;14.90;98.30;;;;;;5075776;28;19909;-18
2023/04/01 03:20:33;;;;;;;;;;;14.90;98.30;;;;;;5073644;28;19950;-15
2023/04/01 03:22:58;;;;;;;;;;;14.90;98.40;;;;;;5073917;28;19908;-13
2023/04/01 03:25:24;;;;;;;;;;;14.80;98.30;;;;;;5073386;28;19943;-17
2023/04/01 03:28:00;;;;;;;;;;;14.80;98.30;;;;;;5075427;28;19908;-17
2023/04/01 03:30:34;;;;;;;;;;;14.90;98.40;;;;;;5075380;28;19912;-17
2023/04/01 03:33:18;;;;;;;;;;;14.80;98.40;;;;;;5063019;28;19914;-17
2023/04/01 03:35:44;;;;;;;;;;;14.80;98.40;;;;;;5074226;28;20306;-16
2023/04/01 03:38:21;;;;;;;;;;;14.80;98.40;;;;;;5074046;28;19917;-17
2023/04/01 03:40:53;;;;;;;;;;;14.80;98.40;;;;;;5073932;28;19973;-16
2023/04/01 03:43:34;;;;;;;;;;;14.80;98.40;;;;;;5073439;28;20160;-18
2023/04/01 03:46:09;;;;;;;;;;;14.80;98.40;;;;;;5070417;28;19919;-16
2023/04/01 03:48:59;;;;;;;;;;;14.80;98.40;;;;;;5073390;28;19963;-18
2023/04/01 03:54:49;;;;;;;;;;;14.80;98.40;;;;;;5074907;28;20068;-17
2023/04/01 03:57:26;;;;;;;;;;;14.80;98.40;;;;;;5073651;28;20318;-15
2023/04/01 03:59:51;;;;;;;;;;;14.80;98.40;;;;;;5073133;28;19962;-16
2023/04/01 04:02:20;;;;;;;;;;;14.80;98.40;;;;;;5073200;28;19963;-16
2023/04/01 04:04:49;;;;;;;;;;;14.80;98.40;;;;;;5073564;28;19973;-18
2023/04/01 04:07:20;;;;;;;;;;;14.80;98.40;;;;;;5071816;28;19939;-17
2023/04/01 04:09:52;;;;;;;;;;;14.70;98.40;;;;;;5072687;28;19909;-19
2023/04/01 04:12:18;;;;;;;;;;;14.80;98.40;;;;;;5071822;28;19952;-15
2023/04/01 04:14:59;;;;;;;;;;;14.70;98.40;;;;;;5078541;28;20265;-16
2023/04/01 04:17:24;;;;;;;;;;;14.80;98.40;;;;;;5066239;28;19913;-17
2023/04/01 04:19:56;;;;;;;;;;;14.70;98.40;;;;;;5078214;28;19919;-17
2023/04/01 04:22:40;;;;;;;;;;;14.70;98.40;;;;;;5078061;28;19913;-16
2023/04/01 04:25:06;;;;;;;;;;;14.70;98.40;;;;;;5078144;28;19908;-17
2023/04/01 04:27:53;;;;;;;;;;;14.70;98.40;;;;;;5076393;28;19919;-16
2023/04/01 04:30:21;;;;;;;;;;;14.70;98.40;;;;;;5076828;28;19913;-19
2023/04/01 04:32:50;;;;;;;;;;;14.70;98.40;;;;;;5075200;28;19919;-14
2023/04/01 04:35:15;;;;;;;;;;;14.70;98.40;;;;;;5074616;28;19920;-19
2023/04/01 04:37:43;;;;;;;;;;;14.70;98.40;;;;;;5075438;28;20017;-18
2023/04/01 04:40:12;;;;;;;;;;;14.70;98.40;;;;;;5073619;28;19936;-14
2023/04/01 04:42:49;;;;;;;;;;;14.70;98.50;;;;;;5075395;28;19908;-15
2023/04/01 04:45:15;;;;;;;;;;;14.70;98.40;;;;;;5074923;28;19908;-31
2023/04/01 04:47:47;;;;;;;;;;;14.70;98.40;;;;;;5073675;28;20351;-16
2023/04/01 04:50:16;;;;;;;;;;;14.70;98.40;;;;;;5073964;28;20276;-18
2023/04/01 04:53:17;;;;;;;;;;;14.70;98.40;;;;;;5073567;28;19908;-17
2023/04/01 04:55:53;;;;;;;;;;;14.70;98.40;;;;;;5053531;28;19915;-17
2023/04/01 04:58:24;;;;;;;;;;;14.70;98.40;;;;;;5076012;28;20168;-17
2023/04/01 05:03:53;;;;;;;;;;;14.70;98.40;;;;;;5077237;28;19919;-16
2023/04/01 05:06:46;;;;;;;;;;;14.70;98.40;;;;;;5077092;28;19908;-16
2023/04/01 05:09:24;;;;;;;;;;;14.70;98.40;;;;;;5074434;28;20216;-16
2023/04/01 05:12:19;;;;;;;;;;;14.70;98.40;;;;;;5075443;28;19920;-16
2023/04/01 05:14:50;;;;;;;;;;;14.70;98.40;;;;;;5076447;28;19908;-17
2023/04/01 05:17:21;;;;;;;;;;;14.70;98.50;;;;;;5076170;28;20003;-15
2023/04/01 05:19:50;;;;;;;;;;;14.70;98.40;;;;;;5075493;28;19936;-16
2023/04/01 05:22:28;;;;;;;;;;;14.70;98.40;;;;;;5075146;28;19919;-15
2023/04/01 05:25:13;;;;;;;;;;;14.70;98.50;;;;;;5077403;28;20053;-18
2023/04/01 05:27:57;;;;;;;;;;;14.70;98.40;;;;;;5076574;28;19916;-29
2023/04/01 05:30:22;;;;;;;;;;;14.70;98.40;;;;;;5074838;28;19920;-17
2023/04/01 05:32:54;;;;;;;;;;;14.70;98.40;;;;;;5073982;28;19909;-16
2023/04/01 05:35:38;;;;;;;;;;;14.70;98.50;;;;;;5075177;28;19916;-16
2023/04/01 05:38:04;;;;;;;;;;;14.70;98.40;;;;;;5075493;28;19908;-16
2023/04/01 05:40:38;;;;;;;;;;;14.70;98.40;;;;;;5075334;28;19923;-18
2023/04/01 05:43:04;;;;;;;;;;;14.70;98.40;;;;;;5076195;28;19931;-16
2023/04/01 05:45:29;;;;;;;;;;;14.70;98.40;;;;;;5075420;28;19909;-16
2023/04/01 05:47:55;;;;;;;;;;;14.70;98.40;;;;;;5074418;28;19951;-15
2023/04/01 05:53:25;;;;;;;;;;;14.70;98.40;;;;;;5074778;28;20061;-15
2023/04/01 05:55:54;;;;;;;;;;;14.70;98.40;;;;;;5074860;28;20019;-14
2023/04/01 05:58:19;;;;;;;;;;;14.70;98.40;;;;;;5073400;28;19908;-19
2023/04/01 06:00:48;;;;;;;;;;;14.70;98.40;;;;;;5072597;28;19931;-15
2023/04/01 06:03:19;;;;;;;;;;;14.70;98.40;;;;;;5073849;28;19915;-15
2023/04/01 06:05:45;;;;;;;;;;;14.70;98.40;;;;;;5073906;28;19908;-16
2023/04/01 06:08:35;;;;;;;;;;;14.70;98.40;;;;;;5073826;28;19961;-17
2023/04/01 06:11:04;;;;;;;;;;;14.70;98.40;;;;;;5074336;28;19912;-16
2023/04/01 06:13:45;;;;;;;;;;;14.70;98.40;;;;;;5073234;28;19908;-15
2023/04/01 06:16:35;;;;;;;;;;;14.70;98.40;;;;;;5073062;28;19939;-17
2023/04/01 06:19:20;;;;;;;;;;;14.70;98.40;;;;;;5070771;28;19908;-16
2023/04/01 06:22:07;;;;;;;;;;;14.70;98.40;;;;;;5072034;28;20321;-15
2023/04/01 06:24:44;;;;;;;;;;;14.70;98.50;;;;;;5073105;28;19912;-15
2023/04/01 06:27:29;;;;;;;;;;;14.70;98.70;;;;;;5070733;28;20339;-17
2023/04/01 06:30:16;;;;;;;;;;;14.70;98.90;;;;;;5073731;28;19909;-16
2023/04/01 06:33:06;;;;;;;;;;;14.70;99.10;;;;;;5074818;28;20380;-17
2023/04/01 06:35:49;;;;;;;;;;;14.80;99.40;;;;;;5072352;28;19954;-19
2023/04/01 06:38:30;;;;;;;;;;;14.70;99.50;;;;;;5072344;28;19948;-15
2023/04/01 06:44:28;;;;;;;;;;;14.80;99.70;;;;;;5065280;28;19909;-14
2023/04/01 06:47:12;;;;;;;;;;;14.80;99.80;;;;;;5072922;28;20029;-16
2023/04/01 06:49:56;;;;;;;;;;;14.80;99.80;;;;;;5071753;28;19908;-18
2023/04/01 06:52:54;;;;;;;;;;;14.80;99.80;;;;;;5071450;28;20369;-14
2023/04/01 06:59:09;;;;;;;;;;;14.80;99.90;;;;;;5047000;28;19920;-18
2023/04/01 07:01:43;;;;;;;;;;;14.80;99.90;;;;;;5027169;28;19908;-17
2023/04/01 07:07:17;;;;;;;;;;;14.80;99.90;;;;;;5068254;28;19930;-17
2023/04/01 07:09:55;;;;;;;;;;;14.80;99.90;;;;;;5069607;28;20163;-17
2023/04/01 07:12:27;;;;;;;;;;;14.80;99.90;;;;;;5068776;28;20273;-17
2023/04/01 07:14:59;;;;;;;;;;;14.80;99.90;;;;;;5068285;28;20278;-18
2023/04/01 07:17:51;;;;;;;;;;;14.80;99.90;;;;;;5068089;28;19909;-18
2023/04/01 07:20:28;;;;;;;;;;;14.90;99.90;;;;;;5073492;28;19909;-17
2023/04/01 07:22:56;;;;;;;;;;;14.90;99.90;;;;;;5070940;28;20258;-15
2023/04/01 07:25:34;;;;;;;;;;;14.90;99.90;;;;;;5070410;28;20053;-18
2023/04/01 07:28:07;;;;;;;;;;;14.90;99.90;;;;;;5067641;28;19972;-17
2023/04/01 07:30:51;;;;;;;;;;;14.90;99.90;;;;;;5072048;28;20267;-17
2023/04/01 07:33:35;;;;;;;;;;;14.90;99.90;;;;;;5069902;28;19916;-16
2023/04/01 07:36:30;;;;;;;;;;;15.00;99.90;;;;;;5071381;28;19999;-18
2023/04/01 07:39:07;;;;;;;;;;;15.00;99.90;;;;;;5035358;28;20525;-15
2023/04/01 07:41:55;;;;;;;;;;;15.00;99.90;;;;;;5050837;28;19908;-15
2023/04/01 07:45:00;;;;;;;;;;;15.00;99.90;;;;;;5048119;28;19952;-15
2023/04/01 07:47:28;;;;;;;;;;;15.00;99.90;;;;;;5050663;28;19920;-16
2023/04/01 07:50:27;;;;;;;;;;;15.00;99.90;;;;;;5051811;28;19909;-17
2023/04/01 07:53:13;;;;;;;;;;;15.00;99.90;;;;;;5053551;28;19951;-15
2023/04/01 07:56:03;;;;;;;;;;;15.00;99.90;;;;;;5052130;28;19941;-15
2023/04/01 07:58:43;;;;;;;;;;;15.00;99.90;;;;;;5035495;28;19940;-16
2023/04/01 08:01:21;;;;;;;;;;;15.00;99.90;;;;;;5052665;28;19913;-16
2023/04/01 08:04:20;;;;;;;;;;;15.00;99.90;;;;;;5036635;28;20003;-16
2023/04/01 08:07:11;;;;;;;;;;;15.10;99.90;;;;;;5052993;28;19998;-17
2023/04/01 08:09:43;;;;;;;;;;;15.10;99.90;;;;;;5066532;28;20194;-15
2023/04/01 08:15:21;;;;;;;;;;;15.20;99.90;;;;;;5073991;28;19919;-16
2023/04/01 08:17:58;;;;;;;;;;;15.20;99.90;;;;;;5074727;28;19939;-16
2023/04/01 08:20:52;;;;;;;;;;;15.20;99.90;;;;;;5073335;28;20193;-18
2023/04/01 08:23:30;;;;;;;;;;;15.20;99.90;;;;;;5072965;28;20003;-18
2023/04/01 08:26:10;;;;;;;;;;;15.20;99.90;;;;;;5078304;28;19908;-15
2023/04/01 08:28:55;;;;;;;;;;;15.20;99.90;;;;;;5079274;28;19909;-17
2023/04/01 08:31:59;;;;;;;;;;;15.20;99.90;;;;;;5076569;28;19920;-16
2023/04/01 08:34:28;;;;;;;;;;;15.20;99.90;;;;;;5033518;28;19939;-18
2023/04/01 08:37:05;;;;;;;;;;;15.10;99.90;;;;;;5067428;28;20012;-17
2023/04/01 08:39:57;;;;;;;;;;;15.10;99.90;;;;;;5073898;28;19908;-14
2023/04/01 08:42:40;;;;;;;;;;;15.20;99.90;;;;;;5035827;28;19917;-16
2023/04/01 08:45:25;;;;;;;;;;;15.20;99.90;;;;;;5051146;28;19916;-16
2023/04/01 08:47:50;;;;;;;;;;;15.10;99.90;;;;;;5033685;28;19909;-16
2023/04/01 08:50:40;;;;;;;;;;;15.10;99.90;;;;;;5049289;28;19913;-18
2023/04/01 08:53:25;;;;;;;;;;;15.10;99.90;;;;;;5055967;28;19909;-17
2023/04/01 08:56:15;;;;;;;;;;;15.10;99.90;;;;;;5071473;28;20290;-18
2023/04/01 08:58:53;;;;;;;;;;;15.10;99.90;;;;;;5070773;28;20170;-17
2023/04/01 09:01:48;;;;;;;;;;;15.10;99.90;;;;;;5071721;28;19947;-17
2023/04/01 09:04:23;;;;;;;;;;;15.10;99.90;;;;;;5052222;28;19908;-19
2023/04/01 09:06:58;;;;;;;;;;;15.20;99.90;;;;;;5072396;28;19935;-17
2023/04/01 09:09:43;;;;;;;;;;;15.10;99.90;;;;;;5069262;28;19978;-18
2023/04/01 09:12:14;;;;;;;;;;;15.10;99.90;;;;;;5069369;28;19939;-15
2023/04/01 09:14:46;;;;;;;;;;;15.20;99.90;;;;;;5073597;28;19908;-16
2023/04/01 09:17:30;;;;;;;;;;;15.20;99.90;;;;;;5075885;28;19934;-18
2023/04/01 09:20:14;;;;;;;;;;;15.20;99.90;;;;;;5071466;28;19935;-15
2023/04/01 09:22:40;;;;;;;;;;;15.20;99.90;;;;;;5073443;28;19909;-14
2023/04/01 09:25:24;;;;;;;;;;;15.20;99.90;;;;;;5071487;28;20015;-16
2023/04/01 09:27:57;;;;;;;;;;;15.20;99.90;;;;;;5071412;28;20281;-18
2023/04/01 09:30:41;;;;;;;;;;;15.20;99.90;;;;;;5070262;28;19968;-16
2023/04/01 09:33:06;;;;;;;;;;;15.20;99.90;;;;;;5071070;28;20070;-15
2023/04/01 09:35:54;;;;;;;;;;;15.20;99.90;;;;;;5070805;28;20826;-16
2023/04/01 09:38:19;;;;;;;;;;;15.20;99.90;;;;;;5070578;28;19916;-18
2023/04/01 09:40:54;;;;;;;;;;;15.20;99.90;;;;;;5070923;28;20158;-16
2023/04/01 09:43:23;;;;;;;;;;;15.20;99.90;;;;;;5069574;28;20218;-16
2023/04/01 09:46:10;;;;;;;;;;;15.20;99.90;;;;;;5070150;28;19909;-15
2023/04/01 09:48:51;;;;;;;;;;;15.20;99.90;;;;;;5071326;28;19958;-16
2023/04/01 09:51:35;;;;;;;;;;;15.20;99.90;;;;;;5068220;28;19912;-14
2023/04/01 09:54:22;;;;;;;;;;;15.20;99.90;;;;;;5069193;28;20018;-14
2023/04/01 09:57:16;;;;;;;;;;;15.20;99.90;;;;;;5071350;28;19908;-15
2023/04/01 10:00:04;;;;;;;;;;;15.20;99.90;;;;;;5068459;28;20273;-17
2023/04/01 10:02:49;;;;;;;;;;;15.20;99.90;;;;;;5078335;28;19908;-15
2023/04/01 10:05:17;;;;;;;;;;;15.20;99.90;;;;;;5077347;28;20285;-15
2023/04/01 10:07:45;;;;;;;;;;;15.20;99.90;;;;;;5077793;28;19920;-16
2023/04/01 10:10:22;;;;;;;;;;;15.20;99.90;;;;;;5077150;28;19916;-17
2023/04/01 10:12:57;;;;;;;;;;;15.20;99.90;;;;;;5077935;28;19920;-16
2023/04/01 10:15:31;;;;;;;;;;;15.20;99.90;;;;;;5076538;28;19912;-16
2023/04/01 10:18:00;;;;;;;;;;;15.30;99.90;;;;;;5076521;28;19959;-18
2023/04/01 10:20:46;;;;;;;;;;;15.30;99.90;;;;;;5076727;28;19913;-14
2023/04/01 10:23:20;;;;;;;;;;;15.30;99.90;;;;;;5077064;28;19969;-16
2023/04/01 10:26:04;;;;;;;;;;;15.30;99.90;;;;;;5077821;28;19908;-15
2023/04/01 10:28:36;;;;;;;;;;;15.30;99.90;;;;;;5077290;28;19938;-16
2023/04/01 10:31:20;;;;;;;;;;;15.40;99.90;;;;;;5077380;28;19908;-14
2023/04/01 10:34:05;;;;;;;;;;;15.40;99.90;;;;;;5077493;28;19908;-15
2023/04/01 10:36:53;;;;;;;;;;;15.40;99.90;;;;;;5077158;28;19927;-17
2023/04/01 10:39:37;;;;;;;;;;;15.40;99.90;;;;;;5077217;28;19916;-14
2023/04/01 10:42:14;;;;;;;;;;;15.40;99.90;;;;;;5077728;28;19997;-16
2023/04/01 10:45:04;;;;;;;;;;;15.50;99.90;;;;;;5076350;28;20205;-18
2023/04/01 10:48:24;;;;;;;;;;;15.50;99.90;;;;;;5076010;28;19909;-16
2023/04/01 10:51:09;;;;;;;;;;;15.50;99.80;;;;;;5035145;28;19917;-16
2023/04/01 10:53:53;;;;;;;;;;;15.50;99.80;;;;;;5032605;28;19925;-17
2023/04/01 10:56:44;;;;;;;;;;;15.50;99.70;;;;;;5042354;28;20186;-16
2023/04/01 10:59:27;;;;;;;;;;;15.50;99.70;;;;;;5057529;28;19952;-16
2023/04/01 11:02:22;;;;;;;;;;;15.50;99.70;;;;;;5064831;28;19993;-16
2023/04/01 11:05:07;;;;;;;;;;;15.50;99.70;;;;;;5067636;28;20185;-14
2023/04/01 11:08:02;;;;;;;;;;;15.50;99.70;;;;;;5067344;28;20202;-17
2023/04/01 11:10:33;;;;;;;;;;;15.50;99.70;;;;;;5067899;28;19923;-17
2023/04/01 11:13:25;;;;;;;;;;;15.50;99.70;;;;;;5067050;28;19916;-17
2023/04/01 11:16:00;;;;;;;;;;;15.50;99.70;;;;;;5066606;28;20309;-16
2023/04/01 11:18:26;;;;;;;;;;;15.50;99.70;;;;;;5067573;28;19913;-16
2023/04/01 11:21:24;;;;;;;;;;;15.50;99.70;;;;;;5066326;28;20210;-19
2023/04/01 11:24:01;;;;;;;;;;;15.50;99.70;;;;;;5066129;28;20285;-17
2023/04/01 11:26:46;;;;;;;;;;;15.50;99.70;;;;;;5068577;28;19909;-18
2023/04/01 11:29:23;;;;;;;;;;;15.50;99.70;;;;;;5067232;28;20335;-19
2023/04/01 11:31:55;;;;;;;;;;;15.50;99.70;;;;;;5067100;28;20344;-18
2023/04/01 11:34:48;;;;;;;;;;;15.50;99.60;;;;;;5058129;28;20133;-16
2023/04/01 11:37:39;;;;;;;;;;;15.50;99.60;;;;;;5064802;28;19916;-16
2023/04/01 11:40:14;;;;;;;;;;;15.50;99.70;;;;;;5066861;28;19909;-16
2023/04/01 11:42:49;;;;;;;;;;;15.50;99.70;;;;;;5067704;28;20072;-16
2023/04/01 11:45:28;;;;;;;;;;;15.50;99.70;;;;;;5068040;28;19913;-17
2023/04/01 11:48:09;;;;;;;;;;;15.50;99.70;;;;;;5066098;28;19990;-25
2023/04/01 11:50:53;;;;;;;;;;;15.50;99.70;;;;;;5066921;28;19920;-17
2023/04/01 11:53:37;;;;;;;;;;;15.50;99.70;;;;;;5065535;28;20186;-16
2023/04/01 11:56:12;;;;;;;;;;;15.50;99.70;;;;;;5068793;28;20290;-17
2023/04/01 11:58:58;;;;;;;;;;;15.50;99.70;;;;;;5067392;28;20260;-17
2023/04/01 12:01:42;;;;;;;;;;;15.50;99.70;;;;;;5066418;28;20347;-15
2023/04/01 12:04:26;;;;;;;;;;;15.50;99.60;;;;;;5067593;28;19939;-17
2023/04/01 12:06:52;;;;;;;;;;;15.50;99.60;;;;;;5067912;28;19998;-16
2023/04/01 12:09:36;;;;;;;;;;;15.60;99.60;;;;;;5065690;28;20302;-16
2023/04/01 12:12:30;;;;;;;;;;;15.60;99.60;;;;;;5066754;28;20151;-14
2023/04/01 12:15:14;;;;;;;;;;;15.60;99.60;;;;;;5066374;28;19908;-14
2023/04/01 12:17:58;;;;;;;;;;;15.60;99.50;;;;;;5066655;28;19909;-17
2023/04/01 12:20:36;;;;;;;;;;;15.60;99.40;;;;;;5065686;28;20305;-17
2023/04/01 12:23:25;;;;;;;;;;;15.60;99.40;;;;;;5065929;28;20094;-17
2023/04/01 12:26:09;;;;;;;;;;;15.60;99.40;;;;;;5043827;28;19914;-16
2023/04/01 12:28:59;;;;;;;;;;;15.60;99.40;;;;;;5068858;28;20030;-16
2023/04/01 12:31:43;;;;;;;;;;;15.60;99.70;;;;;;5064274;28;20293;-18
2023/04/01 12:34:28;;;;;;;;;;;15.60;99.50;;;;;;5066671;28;19909;-15
2023/04/01 12:37:35;;;;;;;;;;;15.60;99.50;;;;;;5070145;28;19926;-18
2023/04/01 12:40:06;;;;;;;;;;;15.60;99.50;;;;;;5049643;28;20214;-17
2023/04/01 12:42:50;;;;;;;;;;;15.60;99.60;;;;;;5033868;28;19909;-15
2023/04/01 12:45:41;;;;;;;;;;;15.50;99.50;;;;;;5065017;28;19916;-18
2023/04/01 12:48:29;;;;;;;;;;;15.50;99.60;;;;;;5064745;28;20194;-26
2023/04/01 12:51:26;;;;;;;;;;;15.50;99.60;;;;;;5070461;28;19978;-17
2023/04/01 12:54:04;;;;;;;;;;;15.50;99.90;;;;;;5048931;28;19923;-16
2023/04/01 12:56:29;;;;;;;;;;;15.50;99.60;;;;;;5048631;28;19919;-15
2023/04/01 12:59:23;;;;;;;;;;;15.50;99.60;;;;;;5028877;28;19909;-18
2023/04/01 13:02:08;;;;;;;;;;;15.50;99.60;;;;;;5046320;28;20176;-18
2023/04/01 13:04:49;;;;;;;;;;;15.50;99.60;;;;;;5048703;28;19909;-17
2023/04/01 13:07:28;;;;;;;;;;;15.50;99.60;;;;;;5069135;28;19982;-17
2023/04/01 13:09:56;;;;;;;;;;;15.60;99.60;;;;;;5071662;28;20232;-15
2023/04/01 13:12:46;;;;;;;;;;;15.60;99.60;;;;;;5070394;28;20318;-15
2023/04/01 13:15:13;;;;;;;;;;;15.50;99.50;;;;;;5070910;28;19909;-17
2023/04/01 13:17:47;;;;;;;;;;;15.50;99.60;;;;;;5070948;28;20231;-16
2023/04/01 13:20:21;;;;;;;;;;;15.50;99.60;;;;;;5070778;28;20007;-15
2023/04/01 13:23:06;;;;;;;;;;;15.50;99.70;;;;;;5071636;28;19921;-16
2023/04/01 13:25:40;;;;;;;;;;;15.50;99.70;;;;;;5071875;28;19908;-16
2023/04/01 13:28:21;;;;;;;;;;;15.50;99.70;;;;;;5070962;28;19919;-15
2023/04/01 13:31:15;;;;;;;;;;;15.50;99.60;;;;;;5068755;28;19931;-27
2023/04/01 13:33:52;;;;;;;;;;;15.50;99.60;;;;;;5068556;28;19935;-18
2023/04/01 13:36:47;;;;;;;;;;;15.50;99.60;;;;;;5068193;28;19917;-14
2023/04/01 13:39:27;;;;;;;;;;;15.50;99.60;;;;;;5070674;28;19919;-17
2023/04/01 13:42:08;;;;;;;;;;;15.50;99.60;;;;;;5068136;28;20380;-13
2023/04/01 13:45:11;;;;;;;;;;;15.50;99.60;;;;;;5070758;28;20088;-17
2023/04/01 13:47:55;;;;;;;;;;;15.50;99.60;;;;;;5047897;28;20279;-17
2023/04/01 13:50:39;;;;;;;;;;;15.50;99.60;;;;;;5047464;28;20410;-17
2023/04/01 13:53:21;;;;;;;;;;;15.50;99.50;;;;;;5046978;28;19909;-19
2023/04/01 13:56:05;;;;;;;;;;;15.60;99.60;;;;;;5045669;28;19999;-18
2023/04/01 13:58:48;;;;;;;;;;;15.60;99.60;;;;;;5045353;28;20066;-18
2023/04/01 14:01:35;;;;;;;;;;;15.60;99.60;;;;;;5049469;28;19909;-18
2023/04/01 14:04:28;;;;;;;;;;;15.60;99.60;;;;;;5069446;28;20205;-17
2023/04/01 14:07:12;;;;;;;;;;;15.50;99.60;;;;;;5069724;28;19913;-13
2023/04/01 14:09:53;;;;;;;;;;;15.50;99.60;;;;;;5070301;28;19908;-18
2023/04/01 14:12:31;;;;;;;;;;;15.50;99.60;;;;;;5071472;28;19923;-14
2023/04/01 14:15:28;;;;;;;;;;;15.50;99.70;;;;;;5071418;28;19908;-19
2023/04/01 14:17:53;;;;;;;;;;;15.50;99.70;;;;;;5068821;28;19918;-15
2023/04/01 14:20:27;;;;;;;;;;;15.50;99.70;;;;;;5067130;28;19908;-16
2023/04/01 14:23:14;;;;;;;;;;;15.50;99.80;;;;;;5066335;28;20322;-17
2023/04/01 14:25:57;;;;;;;;;;;15.50;99.80;;;;;;5066296;28;20182;-16
2023/04/01 14:28:27;;;;;;;;;;;15.50;99.80;;;;;;5062543;28;20310;-18
2023/04/01 14:30:56;;;;;;;;;;;15.50;99.80;;;;;;5064420;28;19923;-17
2023/04/01 14:33:40;;;;;;;;;;;15.40;99.80;;;;;;5064291;28;19916;-16
2023/04/01 14:36:31;;;;;;;;;;;15.40;99.90;;;;;;5066526;28;19977;-17
2023/04/01 14:39:16;;;;;;;;;;;15.40;99.90;;;;;;5068440;28;20173;-16
2023/04/01 14:42:00;;;;;;;;;;;15.40;99.90;;;;;;5067171;28;19916;-18
2023/04/01 14:44:45;;;;;;;;;;;15.40;99.90;;;;;;5069841;28;20007;-16
2023/04/01 14:47:29;;;;;;;;;;;15.40;99.90;;;;;;5068237;28;20190;-18
2023/04/01 14:50:24;;;;;;;;;;;15.40;99.90;;;;;;5065483;28;19916;-16
2023/04/01 14:56:08;;;;;;;;;;;15.40;99.90;;;;;;5043878;28;20143;-17
2023/04/01 14:59:06;;;;;;;;;;;15.40;99.90;;;;;;5066576;28;20246;-18
2023/04/01 15:01:53;;;;;;;;;;;15.40;99.90;;;;;;5067949;28;19908;-14
2023/04/01 15:04:34;;;;;;;;;;;15.30;99.90;;;;;;5068943;28;20004;-16
2023/04/01 15:07:45;;;;;;;;;;;15.30;99.90;;;;;;5068417;28;19966;-16
2023/04/01 15:10:28;;;;;;;;;;;15.30;99.90;;;;;;5044450;28;20076;-18
2023/04/01 15:13:03;;;;;;;;;;;15.30;99.90;;;;;;5045727;28;19967;-15
2023/04/01 15:15:50;;;;;;;;;;;15.30;99.90;;;;;;5044902;28;20263;-15
2023/04/01 15:18:34;;;;;;;;;;;15.30;99.90;;;;;;5048885;28;19919;-15
2023/04/01 15:24:17;;;;;;;;;;;15.30;99.90;;;;;;5067467;28;19935;-17
2023/04/01 15:27:12;;;;;;;;;;;15.30;99.90;;;;;;5068973;28;19943;-16
2023/04/01 15:29:37;;;;;;;;;;;15.30;99.90;;;;;;5068184;28;19912;-18
2023/04/01 15:32:21;;;;;;;;;;;15.30;99.90;;;;;;5066842;28;19941;-16
2023/04/01 15:34:50;;;;;;;;;;;15.40;99.90;;;;;;5067068;28;20016;-16
2023/04/01 15:37:45;;;;;;;;;;;15.30;99.90;;;;;;5070160;28;19916;-15
2023/04/01 15:40:29;;;;;;;;;;;15.30;99.90;;;;;;5067284;28;20091;-14
2023/04/01 15:43:21;;;;;;;;;;;15.30;99.90;;;;;;5068631;28;20443;-15
2023/04/01 15:45:54;;;;;;;;;;;15.30;99.90;;;;;;5065001;28;19908;-17
2023/04/01 15:48:38;;;;;;;;;;;15.30;99.90;;;;;;5067114;28;19927;-16
2023/04/01 15:51:06;;;;;;;;;;;15.30;99.90;;;;;;5067857;28;19923;-16
2023/04/01 15:53:47;;;;;;;;;;;15.30;99.90;;;;;;5068379;28;19944;-17
2023/04/01 15:56:39;;;;;;;;;;;15.30;99.90;;;;;;5068418;28;19908;-16
2023/04/01 15:59:33;;;;;;;;;;;15.30;99.90;;;;;;5068660;28;20063;-16
2023/04/01 16:02:17;;;;;;;;;;;15.30;99.90;;;;;;5067858;28;20146;-18
2023/04/01 16:04:58;;;;;;;;;;;15.30;99.90;;;;;;5066574;28;19928;-17
2023/04/01 16:07:30;;;;;;;;;;;15.30;99.90;;;;;;5070837;28;19912;-14
2023/04/01 16:10:10;;;;;;;;;;;15.30;99.90;;;;;;5074816;28;20015;-13
2023/04/01 16:12:35;;;;;;;;;;;15.30;99.90;;;;;;5072026;28;19912;-16
2023/04/01 16:15:10;;;;;;;;;;;15.30;99.90;;;;;;5070067;28;20064;-17